createdAt,value
2017-05-25T00:00:07.976Z,6.56
2017-05-25T00:02:36.357Z,7.56
2017-05-25T00:05:04.736Z,9.30
2017-05-25T00:07:33.130Z,7.34
2017-05-25T00:10:01.424Z,5.84
2017-05-25T00:12:29.733Z,7.44
2017-05-25T00:14:58.066Z,9.40
2017-05-25T00:17:26.403Z,7.46
2017-05-25T00:19:54.827Z,6.02
2017-05-25T00:22:23.187Z,8.20
2017-05-25T00:24:51.568Z,6.68
2017-05-25T00:27:19.894Z,10.26
2017-05-25T00:29:48.205Z,8.70
2017-05-25T00:32:16.538Z,8.28
2017-05-25T00:34:44.846Z,9.08
2017-05-25T00:37:13.145Z,11.06
2017-05-25T00:39:41.492Z,6.78
2017-05-25T00:42:09.861Z,11.06
2017-05-25T00:44:38.235Z,5.46
2017-05-25T00:47:06.534Z,7.92
2017-05-25T00:49:34.911Z,6.86
2017-05-25T00:52:03.219Z,11.04
2017-05-25T00:54:31.519Z,9.40
2017-05-25T00:56:59.931Z,8.06
2017-05-25T00:59:28.306Z,8.16
2017-05-25T01:01:56.685Z,5.50
2017-05-25T01:04:25.165Z,9.20
2017-05-25T01:06:53.546Z,7.12
2017-05-25T01:09:21.837Z,8.58
2017-05-25T01:11:50.141Z,13.16
2017-05-25T01:14:18.428Z,7.70
2017-05-25T01:16:46.798Z,10.52
2017-05-25T01:19:15.124Z,7.16
2017-05-25T01:21:43.480Z,8.20
2017-05-25T01:24:11.932Z,9.18
2017-05-25T01:26:40.329Z,4.86
2017-05-25T01:29:08.625Z,9.06
2017-05-25T01:31:36.940Z,6.36
2017-05-25T01:34:05.249Z,6.50
2017-05-25T01:36:33.660Z,12.04
2017-05-25T01:39:02.021Z,7.80
2017-05-25T01:41:30.386Z,8.90
2017-05-25T01:43:58.770Z,8.34
2017-05-25T01:46:27.140Z,6.08
2017-05-25T01:48:55.447Z,8.98
2017-05-25T01:51:23.804Z,7.22
2017-05-25T01:53:52.089Z,11.04
2017-05-25T01:56:20.484Z,7.98
2017-05-25T01:58:48.831Z,10.84
2017-05-25T02:01:17.119Z,8.18
2017-05-25T02:03:45.494Z,7.54
2017-05-25T02:06:13.866Z,11.06
2017-05-25T02:08:42.183Z,9.76
2017-05-25T02:11:10.524Z,7.64
2017-05-25T02:13:38.910Z,11.88
2017-05-25T02:16:07.281Z,9.66
2017-05-25T02:18:35.576Z,6.20
2017-05-25T02:21:03.947Z,9.74
2017-05-25T02:23:32.318Z,8.44
2017-05-25T02:26:00.699Z,8.26
2017-05-25T02:28:29.029Z,8.12
2017-05-25T02:30:57.325Z,10.60
2017-05-25T02:33:25.658Z,9.00
2017-05-25T02:35:54.014Z,10.84
2017-05-25T02:38:22.303Z,9.68
2017-05-25T02:40:50.674Z,12.34
2017-05-25T02:43:19.048Z,6.06
2017-05-25T02:45:47.376Z,10.44
2017-05-25T02:48:15.661Z,7.40
2017-05-25T02:50:43.952Z,10.14
2017-05-25T02:53:12.368Z,13.04
2017-05-25T02:55:40.735Z,8.02
2017-05-25T02:58:09.118Z,9.68
2017-05-25T03:00:37.408Z,8.12
2017-05-25T03:03:05.696Z,7.92
2017-05-25T03:05:34.055Z,9.88
2017-05-25T03:08:02.344Z,9.54
2017-05-25T03:10:30.680Z,10.50
2017-05-25T03:12:58.968Z,9.04
2017-05-25T03:15:27.253Z,9.50
2017-05-25T03:17:55.634Z,7.80
2017-05-25T03:20:23.922Z,11.28
2017-05-25T03:22:52.304Z,13.72
2017-05-25T03:25:20.676Z,9.18
2017-05-25T03:27:49.048Z,12.68
2017-05-25T03:30:17.434Z,10.62
2017-05-25T03:32:45.736Z,10.94
2017-05-25T03:35:14.093Z,9.48
2017-05-25T03:37:42.387Z,11.84
2017-05-25T03:40:10.685Z,13.34
2017-05-25T03:42:38.995Z,8.94
2017-05-25T03:45:07.373Z,12.84
2017-05-25T03:47:35.704Z,11.20
2017-05-25T03:50:03.995Z,11.20
2017-05-25T03:52:32.280Z,13.92
2017-05-25T03:55:00.592Z,9.06
2017-05-25T03:57:28.881Z,9.22
2017-05-25T03:59:57.240Z,15.64
2017-05-25T04:02:25.609Z,12.22
2017-05-25T04:04:53.993Z,14.02
2017-05-25T04:07:22.309Z,8.86
2017-05-25T04:09:50.619Z,13.38
2017-05-25T04:12:18.960Z,12.10
2017-05-25T04:14:47.254Z,12.50
2017-05-25T04:17:15.558Z,12.20
2017-05-25T04:19:43.961Z,11.68
2017-05-25T04:22:12.332Z,10.84
2017-05-25T04:24:40.678Z,11.74
2017-05-25T04:27:08.982Z,12.52
2017-05-25T04:29:37.375Z,15.74
2017-05-25T04:32:05.755Z,10.70
2017-05-25T04:34:34.125Z,11.48
2017-05-25T04:37:02.470Z,12.40
2017-05-25T04:39:30.781Z,17.22
2017-05-25T04:41:59.154Z,13.98
2017-05-25T04:44:27.549Z,16.98
2017-05-25T04:46:55.868Z,13.78
2017-05-25T04:49:24.306Z,15.68
2017-05-25T04:51:52.598Z,17.46
2017-05-25T04:54:20.893Z,15.16
2017-05-25T04:56:49.335Z,14.62
2017-05-25T04:59:17.633Z,13.84
2017-05-25T05:01:45.997Z,15.70
2017-05-25T05:04:14.306Z,15.28
2017-05-25T05:06:42.648Z,14.10
2017-05-25T05:09:10.942Z,13.68
2017-05-25T05:11:39.254Z,14.54
2017-05-25T05:14:07.576Z,13.30
2017-05-25T05:16:35.875Z,11.96
2017-05-25T05:19:04.354Z,13.70
2017-05-25T05:21:32.716Z,13.86
2017-05-25T05:24:01.094Z,16.20
2017-05-25T05:26:29.428Z,14.78
2017-05-25T05:28:57.736Z,12.50
2017-05-25T05:31:26.033Z,11.48
2017-05-25T05:33:54.356Z,11.82
2017-05-25T05:36:22.689Z,14.74
2017-05-25T05:38:51.066Z,12.26
2017-05-25T05:41:19.449Z,10.80
2017-05-25T05:43:47.828Z,13.30
2017-05-25T05:46:16.205Z,12.70
2017-05-25T05:48:44.590Z,13.78
2017-05-25T05:51:12.910Z,10.36
2017-05-25T05:53:41.245Z,15.16
2017-05-25T05:56:09.590Z,10.78
2017-05-25T05:58:37.896Z,11.58
2017-05-25T06:01:06.288Z,11.66
2017-05-25T06:03:34.657Z,13.68
2017-05-25T06:06:02.953Z,12.40
2017-05-25T06:08:31.405Z,12.04
2017-05-25T06:10:59.793Z,12.36
2017-05-25T06:13:28.124Z,9.96
2017-05-25T06:15:56.444Z,10.28
2017-05-25T06:18:24.743Z,11.88
2017-05-25T06:20:53.162Z,11.36
2017-05-25T06:23:21.454Z,11.96
2017-05-25T06:25:49.769Z,13.20
2017-05-25T06:28:18.094Z,11.46
2017-05-25T06:30:46.469Z,10.42
2017-05-25T06:33:14.845Z,17.20
2017-05-25T06:35:43.146Z,13.56
2017-05-25T06:38:11.444Z,12.52
2017-05-25T06:40:39.776Z,10.06
2017-05-25T06:43:08.125Z,9.90
2017-05-25T06:45:36.537Z,16.36
2017-05-25T06:48:04.834Z,11.30
2017-05-25T06:50:33.144Z,12.22
2017-05-25T06:53:01.840Z,10.40
2017-05-25T06:55:30.311Z,8.82
2017-05-25T06:58:01.783Z,10.30
2017-05-25T07:00:30.314Z,9.16
2017-05-25T07:02:58.771Z,8.60
2017-05-25T07:05:27.742Z,12.78
2017-05-25T07:07:56.991Z,12.30
2017-05-25T07:10:25.725Z,8.78
2017-05-25T07:12:54.151Z,10.76
2017-05-25T07:15:22.608Z,12.60
2017-05-25T07:17:51.010Z,10.44
2017-05-25T07:20:19.363Z,9.90
2017-05-25T07:22:47.673Z,14.34
2017-05-25T07:25:16.110Z,12.78
2017-05-25T07:27:44.533Z,9.78
2017-05-25T07:30:12.907Z,9.84
2017-05-25T07:32:41.250Z,10.80
2017-05-25T07:35:09.533Z,9.92
2017-05-25T07:37:37.837Z,14.44
2017-05-25T07:40:06.191Z,9.30
2017-05-25T07:42:34.611Z,10.82
2017-05-25T07:45:02.937Z,10.38
2017-05-25T07:47:31.256Z,9.08
2017-05-25T07:49:59.548Z,8.04
2017-05-25T07:52:27.864Z,10.38
2017-05-25T07:54:56.159Z,11.96
2017-05-25T07:57:24.566Z,12.02
2017-05-25T07:59:52.856Z,5.96
2017-05-25T08:02:21.153Z,7.62
2017-05-25T08:04:49.494Z,7.60
2017-05-25T08:07:17.793Z,6.46
2017-05-25T08:09:46.155Z,11.12
2017-05-25T08:12:14.546Z,8.28
2017-05-25T08:14:42.902Z,7.16
2017-05-25T08:17:11.295Z,6.92
2017-05-25T08:19:39.662Z,6.62
2017-05-25T08:22:07.948Z,6.48
2017-05-25T08:24:36.330Z,6.44
2017-05-25T08:27:04.712Z,7.36
2017-05-25T08:29:33.054Z,4.96
2017-05-25T08:32:01.452Z,6.30
2017-05-25T08:34:29.833Z,5.56
2017-05-25T08:36:58.149Z,5.44
2017-05-25T08:39:26.490Z,4.70
2017-05-25T08:41:54.879Z,4.70
2017-05-25T08:44:23.244Z,4.52
2017-05-25T08:46:51.544Z,9.06
2017-05-25T08:49:19.904Z,5.72
2017-05-25T08:51:48.288Z,4.74
2017-05-25T08:54:16.656Z,4.96
2017-05-25T08:56:44.942Z,6.58
2017-05-25T08:59:13.235Z,6.98
2017-05-25T09:01:41.570Z,4.20
2017-05-25T09:04:09.862Z,4.62
2017-05-25T09:06:38.244Z,4.38
2017-05-25T09:09:06.629Z,5.52
2017-05-25T09:11:34.923Z,5.10
2017-05-25T09:14:03.236Z,5.50
2017-05-25T09:16:31.526Z,6.54
2017-05-25T09:18:59.874Z,7.66
2017-05-25T09:21:28.237Z,5.48
2017-05-25T09:23:56.592Z,5.04
2017-05-25T09:26:24.975Z,6.62
2017-05-25T09:28:53.277Z,4.26
2017-05-25T09:31:21.574Z,4.20
2017-05-25T09:33:49.920Z,7.08
2017-05-25T09:36:18.285Z,4.90
2017-05-25T09:38:46.576Z,6.04
2017-05-25T09:41:14.941Z,5.96
2017-05-25T09:43:43.243Z,7.84
2017-05-25T09:46:11.585Z,8.90
2017-05-25T09:48:39.895Z,7.50
2017-05-25T09:51:08.258Z,7.18
2017-05-25T09:53:36.629Z,6.02
2017-05-25T09:56:05.009Z,6.20
2017-05-25T09:58:33.392Z,7.50
2017-05-25T10:01:01.696Z,8.84
2017-05-25T10:03:30.045Z,5.60
2017-05-25T10:05:58.435Z,7.56
2017-05-25T10:08:26.843Z,9.04
2017-05-25T10:10:55.206Z,7.32
2017-05-25T10:13:23.498Z,8.86
2017-05-25T10:15:51.844Z,7.30
2017-05-25T10:18:20.158Z,9.56
2017-05-25T10:20:48.469Z,8.70
2017-05-25T10:23:16.881Z,8.78
2017-05-25T10:25:45.184Z,8.76
2017-05-25T10:28:13.475Z,8.58
2017-05-25T10:30:41.786Z,7.98
2017-05-25T10:33:10.089Z,9.08
2017-05-25T10:35:38.400Z,8.38
2017-05-25T10:38:06.748Z,8.42
2017-05-25T10:40:35.085Z,8.80
2017-05-25T10:43:03.391Z,9.60
2017-05-25T10:45:31.810Z,8.02
2017-05-25T10:48:00.124Z,9.22
2017-05-25T10:50:28.438Z,10.34
2017-05-25T10:52:56.793Z,9.26
2017-05-25T10:55:25.112Z,9.88
2017-05-25T10:57:53.481Z,9.08
2017-05-25T11:00:21.808Z,10.08
2017-05-25T11:02:50.155Z,9.34
2017-05-25T11:05:18.522Z,9.28
2017-05-25T11:07:46.827Z,9.66
2017-05-25T11:10:15.269Z,9.54
2017-05-25T11:12:43.577Z,8.60
2017-05-25T11:15:11.948Z,13.70
2017-05-25T11:17:40.306Z,11.54
2017-05-25T11:20:08.605Z,12.40
2017-05-25T11:22:36.976Z,9.42
2017-05-25T11:25:05.269Z,8.94
2017-05-25T11:27:33.611Z,10.46
2017-05-25T11:30:01.984Z,7.70
2017-05-25T11:32:30.290Z,9.76
2017-05-25T11:34:58.625Z,8.00
2017-05-25T11:37:27.022Z,6.76
2017-05-25T11:39:55.348Z,6.90
2017-05-25T11:42:23.661Z,6.96
2017-05-25T11:44:52.064Z,7.40
2017-05-25T11:47:20.435Z,8.94
2017-05-25T11:49:48.841Z,9.62
2017-05-25T11:52:17.146Z,7.44
2017-05-25T11:54:45.464Z,13.68
2017-05-25T11:57:13.763Z,7.56
2017-05-25T11:59:42.109Z,6.86
2017-05-25T12:02:10.403Z,9.98
2017-05-25T12:04:38.753Z,8.48
2017-05-25T12:07:07.069Z,11.28
2017-05-25T12:09:35.368Z,11.96
2017-05-25T12:12:03.700Z,6.88
2017-05-25T12:14:31.982Z,8.04
2017-05-25T12:17:00.277Z,8.18
2017-05-25T12:19:28.663Z,7.48
2017-05-25T12:21:56.952Z,8.12
2017-05-25T12:24:25.286Z,9.52
2017-05-25T12:26:53.582Z,9.06
2017-05-25T12:29:21.975Z,9.46
2017-05-25T12:31:50.352Z,9.42
2017-05-25T12:34:18.725Z,8.72
2017-05-25T12:36:47.106Z,8.86
2017-05-25T12:39:15.402Z,12.36
2017-05-25T12:41:43.763Z,8.58
2017-05-25T12:44:12.080Z,10.04
2017-05-25T12:46:40.426Z,11.06
2017-05-25T12:49:08.769Z,11.12
2017-05-25T12:51:37.064Z,10.74
2017-05-25T12:54:05.806Z,9.92
2017-05-25T12:56:34.168Z,9.66
2017-05-25T12:59:02.485Z,11.04
2017-05-25T13:01:30.904Z,10.66
2017-05-25T13:03:59.217Z,9.68
2017-05-25T13:06:27.569Z,14.08
2017-05-25T13:08:55.889Z,11.34
2017-05-25T13:11:24.204Z,9.00
2017-05-25T13:13:52.603Z,10.22
2017-05-25T13:16:20.966Z,9.50
2017-05-25T13:18:49.302Z,10.38
2017-05-25T13:21:17.624Z,8.72
2017-05-25T13:23:45.920Z,8.64
2017-05-25T13:26:14.251Z,8.34
2017-05-25T13:28:42.550Z,8.90
2017-05-25T13:31:11.065Z,7.76
2017-05-25T13:33:39.413Z,8.08
2017-05-25T13:36:07.801Z,7.64
2017-05-25T13:38:36.172Z,7.26
2017-05-25T13:41:04.460Z,7.18
2017-05-25T13:43:32.824Z,7.30
2017-05-25T13:46:01.123Z,7.70
2017-05-25T13:48:29.485Z,8.20
2017-05-25T13:50:57.864Z,7.14
2017-05-25T13:53:26.241Z,6.86
2017-05-25T13:55:54.530Z,6.92
2017-05-25T13:58:22.904Z,8.92
2017-05-25T14:00:51.202Z,6.00
2017-05-25T14:03:19.524Z,6.34
2017-05-25T14:05:47.818Z,6.42
2017-05-25T14:08:16.115Z,6.16
2017-05-25T14:10:44.478Z,5.92
2017-05-25T14:13:12.765Z,6.18
2017-05-25T14:15:41.076Z,6.44
2017-05-25T14:18:09.361Z,5.46
2017-05-25T14:20:37.688Z,5.48
2017-05-25T14:23:06.082Z,6.08
2017-05-25T14:25:34.365Z,6.72
2017-05-25T14:28:02.715Z,4.70
2017-05-25T14:30:31.005Z,6.32
2017-05-25T14:32:59.371Z,7.08
2017-05-25T14:35:27.670Z,6.08
2017-05-25T14:37:55.954Z,4.82
2017-05-25T14:40:24.297Z,5.10
2017-05-25T14:42:52.576Z,5.60
2017-05-25T14:45:20.962Z,5.30
2017-05-25T14:47:49.270Z,5.28
2017-05-25T14:50:17.565Z,5.64
2017-05-25T14:52:45.879Z,5.22
2017-05-25T14:55:14.278Z,5.38
2017-05-25T14:57:42.572Z,4.74
2017-05-25T15:00:10.882Z,5.48
2017-05-25T15:02:39.200Z,5.38
2017-05-25T15:05:07.519Z,5.62
2017-05-25T15:07:35.810Z,5.38
2017-05-25T15:10:04.130Z,4.92
2017-05-25T15:12:32.522Z,5.20
2017-05-25T15:15:00.822Z,5.54
2017-05-25T15:17:29.128Z,8.64
2017-05-25T15:19:57.440Z,4.22
2017-05-25T15:22:25.827Z,4.52
2017-05-25T15:24:54.130Z,4.14
2017-05-25T15:27:22.427Z,5.18
2017-05-25T15:29:50.756Z,3.70
2017-05-25T15:32:19.134Z,6.06
2017-05-25T15:34:47.441Z,4.34
2017-05-25T15:37:15.732Z,3.72
2017-05-25T15:39:44.030Z,3.74
2017-05-25T15:42:12.345Z,4.38
2017-05-25T15:44:40.630Z,4.64
2017-05-25T15:47:09.011Z,5.00
2017-05-25T15:49:37.485Z,4.40
2017-05-25T15:52:05.788Z,4.52
2017-05-25T15:54:34.102Z,4.10
2017-05-25T15:57:02.406Z,4.44
2017-05-25T15:59:30.796Z,6.28
2017-05-25T16:01:59.169Z,3.66
2017-05-25T16:04:27.503Z,5.82
2017-05-25T16:06:55.837Z,4.44
2017-05-25T16:09:24.138Z,5.50
2017-05-25T16:11:52.501Z,4.78
2017-05-25T16:14:20.889Z,7.52
2017-05-25T16:16:49.196Z,5.18
2017-05-25T16:19:17.538Z,6.16
2017-05-25T16:21:45.936Z,6.30
2017-05-25T16:24:14.247Z,4.38
2017-05-25T16:26:42.528Z,5.44
2017-05-25T16:29:10.843Z,4.28
2017-05-25T16:31:39.225Z,3.98
2017-05-25T16:34:07.602Z,4.04
2017-05-25T16:36:35.987Z,5.20
2017-05-25T16:39:04.273Z,3.86
2017-05-25T16:41:32.585Z,4.56
2017-05-25T16:44:20.087Z,3.78
2017-05-25T16:46:49.173Z,3.94
2017-05-25T16:49:18.216Z,2.92
2017-05-25T16:51:47.370Z,6.22
2017-05-25T16:54:16.462Z,3.66
2017-05-25T16:56:45.565Z,2.90
2017-05-25T16:59:14.654Z,4.08
2017-05-25T17:01:43.750Z,3.08
2017-05-25T17:04:12.788Z,5.06
2017-05-25T17:06:41.951Z,3.20
2017-05-25T17:09:11.037Z,4.02
2017-05-25T17:11:40.110Z,3.16
2017-05-25T17:14:09.237Z,3.06
2017-05-25T17:16:38.325Z,3.38
2017-05-25T17:19:07.518Z,5.10
2017-05-25T17:21:36.550Z,3.76
2017-05-25T17:24:05.600Z,2.84
2017-05-25T17:26:34.805Z,4.80
2017-05-25T17:29:03.857Z,5.86
2017-05-25T17:31:32.902Z,4.14
2017-05-25T17:34:01.950Z,4.30
2017-05-25T17:36:31.088Z,3.94
2017-05-25T17:39:00.155Z,2.80
2017-05-25T17:41:29.296Z,2.78
2017-05-25T17:43:58.393Z,3.60
2017-05-25T17:46:27.490Z,3.16
2017-05-25T17:48:56.541Z,2.90
2017-05-25T17:51:25.588Z,2.94
2017-05-25T17:53:54.660Z,2.92
2017-05-25T17:56:23.773Z,3.00
2017-05-25T17:58:52.869Z,5.54
2017-05-25T18:01:21.971Z,2.68
2017-05-25T18:03:51.016Z,4.32
2017-05-25T18:06:20.085Z,4.36
2017-05-25T18:08:49.175Z,4.72
2017-05-25T18:11:18.237Z,3.10
2017-05-25T18:13:47.356Z,3.34
2017-05-25T18:16:16.449Z,4.72
2017-05-25T18:18:45.545Z,5.90
2017-05-25T18:21:14.595Z,3.52
2017-05-25T18:23:43.653Z,3.76
2017-05-25T18:26:12.729Z,4.18
2017-05-25T18:28:41.778Z,3.20
2017-05-25T18:31:10.954Z,3.74
2017-05-25T18:33:39.992Z,7.90
2017-05-25T18:36:09.073Z,2.74
2017-05-25T18:38:38.219Z,3.30
2017-05-25T18:41:07.302Z,3.12
2017-05-25T18:43:36.358Z,3.18
2017-05-25T18:46:05.410Z,4.64
2017-05-25T18:48:34.477Z,6.24
2017-05-25T18:51:03.538Z,4.08
2017-05-25T18:53:32.606Z,3.88
2017-05-25T18:56:01.776Z,3.54
2017-05-25T18:58:30.876Z,3.46
2017-05-25T19:00:59.968Z,3.42
2017-05-25T19:03:29.019Z,4.26
2017-05-25T19:05:58.052Z,4.00
2017-05-25T19:08:27.176Z,3.34
2017-05-25T19:10:56.216Z,6.08
2017-05-25T19:13:25.282Z,3.62
2017-05-25T19:15:54.462Z,4.58
2017-05-25T19:18:23.528Z,3.68
2017-05-25T19:20:52.568Z,4.74
2017-05-25T19:23:21.753Z,4.04
2017-05-25T19:25:50.803Z,6.84
2017-05-25T19:28:19.913Z,4.34
2017-05-25T19:30:48.994Z,10.50
2017-05-25T19:33:18.114Z,6.88
2017-05-25T19:35:47.296Z,6.96
2017-05-25T19:38:16.391Z,10.72
2017-05-25T19:40:45.504Z,6.30
2017-05-25T19:43:14.608Z,5.64
2017-05-25T19:45:43.643Z,6.12
2017-05-25T19:48:12.695Z,5.40
2017-05-25T19:50:41.770Z,7.40
2017-05-25T19:53:10.883Z,6.40
2017-05-25T19:55:39.945Z,6.60
2017-05-25T19:58:08.999Z,6.86
2017-05-25T20:00:38.033Z,8.20
2017-05-25T20:03:07.456Z,7.22
2017-05-25T20:05:36.562Z,7.04
2017-05-25T20:08:05.640Z,10.32
2017-05-25T20:10:34.744Z,5.78
2017-05-25T20:13:03.829Z,6.44
2017-05-25T20:15:32.948Z,4.58
2017-05-25T20:18:01.981Z,7.06
2017-05-25T20:20:31.049Z,9.72
2017-05-25T20:23:00.248Z,4.90
2017-05-25T20:25:29.313Z,6.02
2017-05-25T20:27:58.363Z,5.18
2017-05-25T20:30:27.517Z,9.04
2017-05-25T20:32:56.577Z,5.78
2017-05-25T20:35:25.629Z,4.56
2017-05-25T20:37:54.712Z,9.96
2017-05-25T20:40:23.807Z,7.18
2017-05-25T20:42:52.854Z,8.84
2017-05-25T20:45:22.000Z,9.12
2017-05-25T20:47:51.041Z,9.58
2017-05-25T20:50:20.192Z,7.48
2017-05-25T20:52:49.247Z,9.26
2017-05-25T20:55:18.366Z,6.82
2017-05-25T20:57:47.473Z,7.84
2017-05-25T21:00:16.520Z,13.00
2017-05-25T21:02:45.674Z,10.90
2017-05-25T21:05:14.737Z,14.44
2017-05-25T21:07:43.923Z,13.58
2017-05-25T21:10:13.065Z,11.86
2017-05-25T21:12:42.148Z,10.50
2017-05-25T21:15:11.220Z,11.34
2017-05-25T21:17:40.276Z,9.66
2017-05-25T21:20:09.351Z,9.14
2017-05-25T21:22:38.418Z,8.36
2017-05-25T21:25:07.470Z,6.54
2017-05-25T21:27:36.617Z,6.36
2017-05-25T21:30:05.720Z,7.52
2017-05-25T21:32:34.770Z,13.30
2017-05-25T21:35:03.931Z,8.00
2017-05-25T21:37:32.973Z,10.38
2017-05-25T21:40:02.102Z,8.04
2017-05-25T21:42:31.303Z,10.06
2017-05-25T21:45:00.344Z,9.10
2017-05-25T21:47:29.429Z,12.52
2017-05-25T21:49:58.484Z,11.94
2017-05-25T21:52:27.616Z,11.06
2017-05-25T21:54:56.737Z,7.92
2017-05-25T21:57:25.789Z,8.36
2017-05-25T21:59:54.846Z,10.02
2017-05-25T22:02:23.975Z,7.82
2017-05-25T22:04:53.040Z,7.94
2017-05-25T22:07:22.080Z,9.78
2017-05-25T22:09:51.148Z,8.12
2017-05-25T22:12:20.258Z,8.24
2017-05-25T22:14:49.304Z,8.66
2017-05-25T22:17:18.369Z,6.82
2017-05-25T22:19:47.443Z,7.24
2017-05-25T22:22:16.523Z,5.80
2017-05-25T22:24:45.626Z,5.26
2017-05-25T22:27:14.679Z,7.16
2017-05-25T22:29:43.841Z,8.14
2017-05-25T22:32:12.903Z,6.52
2017-05-25T22:34:42.016Z,4.92
2017-05-25T22:37:11.068Z,5.14
2017-05-25T22:39:40.125Z,5.18
2017-05-25T22:42:09.206Z,7.66
2017-05-25T22:44:38.268Z,6.26
2017-05-25T22:47:07.317Z,6.38
2017-05-25T22:49:36.371Z,7.60
2017-05-25T22:52:05.486Z,8.58
2017-05-25T22:54:34.569Z,9.06
2017-05-25T22:57:03.761Z,9.52
2017-05-25T22:59:32.790Z,6.50
2017-05-25T23:02:01.870Z,7.64
2017-05-25T23:04:30.912Z,7.66
2017-05-25T23:06:59.978Z,6.66
2017-05-25T23:09:29.058Z,9.06
2017-05-25T23:11:58.140Z,5.94
2017-05-25T23:14:27.197Z,8.06
2017-05-25T23:16:56.245Z,6.92
2017-05-25T23:19:25.344Z,7.10
2017-05-25T23:21:54.399Z,7.24
2017-05-25T23:24:23.515Z,7.96
2017-05-25T23:26:52.572Z,6.08
2017-05-25T23:29:21.660Z,9.10
2017-05-25T23:31:50.729Z,5.64
2017-05-25T23:34:19.783Z,10.96
2017-05-25T23:36:48.901Z,5.62
2017-05-25T23:39:17.960Z,6.36
2017-05-25T23:41:46.995Z,5.10
2017-05-25T23:44:16.062Z,7.62
2017-05-25T23:46:45.102Z,6.10
2017-05-25T23:49:14.184Z,6.74
2017-05-25T23:51:43.243Z,8.70
2017-05-25T23:54:12.285Z,7.56
2017-05-25T23:56:41.470Z,7.62
2017-05-25T23:59:10.578Z,7.18
